createdAt,value
2022-10-01T00:00:03.252Z,1271
2022-10-01T00:15:03.229Z,1236
2022-10-01T00:30:04.096Z,1212
2022-10-01T00:45:03.105Z,1195
2022-10-01T01:00:04.279Z,1168
2022-10-01T01:15:05.421Z,1152
2022-10-01T01:45:02.617Z,1109
2022-10-01T02:00:06.448Z,1085
2022-10-01T02:15:05.454Z,1059
2022-10-01T02:30:05.550Z,1036
2022-10-01T02:45:02.279Z,1018
2022-10-01T03:00:02.479Z,1008
2022-10-01T03:15:05.195Z,1002
2022-10-01T03:30:05.387Z,995
2022-10-01T03:45:04.220Z,987
2022-10-01T04:00:04.438Z,981
2022-10-01T04:15:03.235Z,977
2022-10-01T04:30:04.219Z,1000
2022-10-01T04:45:05.461Z,983
2022-10-01T05:00:03.514Z,942
2022-10-01T05:15:03.151Z,892
2022-10-01T05:30:02.209Z,828
2022-10-01T05:45:02.533Z,745
2022-10-01T06:00:02.422Z,713
2022-10-01T06:15:05.381Z,720
2022-10-01T06:30:05.339Z,749
2022-10-01T06:45:03.387Z,792
2022-10-01T07:00:02.080Z,838
2022-10-01T07:15:03.204Z,883
2022-10-01T07:30:03.537Z,914
2022-10-01T07:45:06.051Z,931
2022-10-01T08:00:04.365Z,953
2022-10-01T08:15:02.074Z,982
2022-10-01T08:30:04.234Z,1009
2022-10-01T08:45:03.179Z,1037
2022-10-01T09:00:05.109Z,1071
2022-10-01T09:15:03.511Z,1099
2022-10-01T09:30:02.227Z,1111
2022-10-01T09:45:05.413Z,1121
2022-10-01T10:15:03.656Z,1113
2022-10-01T10:30:05.174Z,1112
2022-10-01T10:45:06.269Z,1116
2022-10-01T11:00:05.209Z,1115
2022-10-01T11:15:03.169Z,1126
2022-10-01T11:30:02.398Z,1143
2022-10-01T11:45:05.269Z,1134
2022-10-01T12:00:03.063Z,1126
2022-10-01T12:30:06.170Z,1104
2022-10-01T12:45:03.629Z,1090
2022-10-01T13:00:02.494Z,1096
2022-10-01T13:15:04.336Z,1107
2022-10-01T13:30:04.139Z,1143
2022-10-01T13:50:05.354Z,1207
2022-10-01T14:05:04.296Z,1289
2022-10-01T14:20:03.647Z,1387
2022-10-01T14:35:03.556Z,1489
2022-10-01T14:50:04.418Z,1582
2022-10-01T15:05:05.419Z,1643
2022-10-01T15:20:06.244Z,1701
2022-10-01T15:35:03.507Z,1757
2022-10-01T15:50:04.149Z,1805
2022-10-01T16:05:03.169Z,1861
2022-10-01T16:20:03.308Z,1929
2022-10-01T16:35:02.531Z,1963
2022-10-01T16:50:05.287Z,1979
2022-10-01T17:05:04.145Z,1984
2022-10-01T17:20:03.091Z,1993
2022-10-01T17:35:04.266Z,1998
2022-10-01T17:50:03.290Z,2028
2022-10-01T18:05:03.448Z,2066
2022-10-01T18:20:05.229Z,2122
2022-10-01T18:40:04.601Z,2152
2022-10-01T18:55:02.533Z,2173
2022-10-01T19:10:06.263Z,2183
2022-10-01T19:25:06.293Z,2188
2022-10-01T19:40:06.452Z,2179
2022-10-01T19:55:09.424Z,2177
2022-10-01T20:10:03.391Z,2181
2022-10-01T20:25:06.045Z,2185
2022-10-01T20:40:02.421Z,2187
2022-10-01T20:55:02.096Z,2186
2022-10-01T21:10:02.561Z,2171
2022-10-01T21:25:06.535Z,2137
2022-10-01T21:40:03.594Z,2033
2022-10-01T21:55:05.297Z,1909
2022-10-01T22:10:06.617Z,1787
2022-10-01T22:25:03.283Z,1677
2022-10-01T22:40:03.420Z,1581
2022-10-01T22:55:04.589Z,1555
2022-10-01T23:10:03.102Z,1547
2022-10-01T23:25:05.231Z,1536
2022-10-01T23:40:03.194Z,1527
2022-10-01T23:55:03.394Z,1523
